Terminal Aerodrome Forecast
Issued by NWS

Home | Current Version | Previous Version | Text Only | Print | Product List | Glossary On
Versions: 1 2 3 4 5 6 7 8 9 10 11 12 13 14 15 16 17 18 19 20 21
000
FTUS46 KPDT 071120
TAFALW
TAF
KALW 071120Z 0712/0812 VRB05KT P6SM BKN070
     FM071600 VRB05KT P6SM SCT080 BKN250
     FM072200 02006KT P6SM SCT050 BKN150
     FM081100 16006KT P6SM VCSH SCT025 OVC050=

USA.gov is the U.S. government's official web portal to all federal, state and local government web resources and services.